Valle Toledo, Valles Caldera, New Mexico Weather observations

Data are for 10 minute period ending at time listed.
 Day   Time   Solar   Ave.   Ave.  Ave.  Vector  Max.   Baro.   Total    
  of    of     Rad.   Air    Rel.  Wind   Wind   Wind  Press.  Precip.   
Year   Day            Temp.  Hum.  Speed  Dir.   Gust                    
2015   (MST)  Kw/m2    F      %     mph   deg.    mph    mb.     in.     
-------------------------------------------------------------------------
 247    5:30   0.00   50.3    71    1.6   118     2.4   733.8    0.00 
 247    5:40   0.00   50.5    69    1.5    67     2.4   733.9    0.00 
 247    5:50   0.00   51.0    68    1.7    57     2.4   734.0    0.00 
 247    6:00   0.01   50.9    69    0.3   100     1.8   734.2    0.00 
 247    6:10   0.01   50.7    71    1.6   341     4.2   734.3    0.00 
 247    6:20   0.01   50.5    73    3.3    34     5.4   734.4    0.00 
 247    6:30   0.02   51.0    68    2.7    32     4.8   734.3    0.00 
 247    6:40   0.03   51.2    71    2.6   112     5.4   734.4    0.00 
 247    6:50   0.03   50.6    73    2.7    46     3.6   734.4    0.00 
 247    7:00   0.03   51.2    74    1.6   160     3.6   734.5    0.00 
 247    7:10   0.03   51.1    74    1.9   141     3.0   734.6    0.00 
 247    7:20   0.03   50.8    70    2.4    64     4.2   734.7    0.00 
 247    7:30   0.04   51.3    73    0.8   290     3.6   734.6    0.00 
 247    7:40   0.06   52.0    74    0.6   355     1.8   734.6    0.00 
 247    7:50   0.10   52.9    72    1.0   206     2.4   734.7    0.00 
 247    8:00   0.12   53.3    71    1.8   142     3.0   734.8    0.00 
 247    8:10   0.13   54.1    73    1.2   149     3.0   734.8    0.00 
 247    8:20   0.14   54.6    64    1.6   174     2.4   734.7    0.00 
 247    8:30   0.16   55.4    63    0.0   346     1.8   734.8    0.00 
 247    8:40   0.13   56.4    62    1.4   289     2.4   734.8    0.00 
 247    8:50   0.12   56.4    65    0.5   288     1.8   734.8    0.00 
 247    9:00   0.16   57.0    63    0.8   177     2.4   734.8    0.00 
 247    9:10   0.12   56.7    68    1.3   201     3.6   734.9    0.00 
 247    9:20   0.09   56.0    72    0.0     0     0.0   735.0    0.00 
 247    9:30   0.11   56.2    72    0.0     0     0.0   735.1    0.00 
 247    9:40   0.15   56.6    64    0.0     0     0.0   735.1    0.00 
 247    9:50   0.15   57.3    60    0.5   148     4.2   735.1    0.00 
 247   10:00   0.26   57.8    58    3.1   122     4.8   735.1    0.00 
 247   10:10   0.22   58.4    56    3.9   148     6.0   735.0    0.00 
 247   10:20   0.17   57.9    55    4.1   149     6.0   735.0    0.00 
 247   10:30   0.22   58.3    56    4.3   156     7.8   734.9    0.00 
 247   10:40   0.33   58.9    54    5.5   154     9.0   734.9    0.00 
 247   10:50   0.30   59.4    52    5.1   157     7.8   734.8    0.00 
 247   11:00   0.30   59.3    52    5.1   160     7.8   734.8    0.00 
 247   11:10   0.42   59.9    52    7.6   147    12.5   734.8    0.00 
 247   11:20   0.47   60.5    52    7.0   158    14.3   734.8    0.00 
 247   11:30   0.22   59.8    53    6.2   154    10.2   734.8    0.00 
 247   11:40   0.15   58.8    56    5.3   151     9.0   734.7    0.00 
 247   11:50   0.31   58.9    56    6.2   156    10.2   734.7    0.00 
 247   12:00   0.32   59.4    54    7.1   152    11.3   734.7    0.00 
 247   12:10   0.33   59.6    54    7.0   157    13.7   734.6    0.00 
 247   12:20   0.32   59.5    55    7.0   154    13.1   734.6    0.00 
 247   12:30   0.26   59.2    58    6.1   164     9.6   734.7    0.00 
 247   12:40   0.16   58.1    60    4.9   183     9.6   734.8    0.00 
 247   12:50   0.13   57.2    63    3.5   172     7.2   734.7    0.00 
 247   13:00   0.15   57.2    62    5.4   170    10.8   734.7    0.00 
 247   13:10   0.18   57.7    63    3.5   173     5.4   734.8    0.00 
 247   13:20   0.25   58.7    60    4.2   187     7.2   734.7    0.00 
 247   13:30   0.31   59.1    59    4.1   191     9.0   734.7    0.00 
 247   13:40   0.20   59.2    57    5.5   179    11.3   734.6    0.00 
 247   13:50   0.21   58.9    58    5.5   183    10.8   734.6    0.00 
 247   14:00   0.27   59.1    60    5.3   190    13.1   734.6    0.00 
 247   14:10   0.12   58.1    62    5.5   171    10.2   734.5    0.00 
 247   14:20   0.07   56.2    68    6.5   155    11.3   734.6    0.00 
 247   14:30   0.09   54.7    75    6.7   147    10.2   734.6    0.00 
 247   14:40   0.10   54.0    79    6.3   148    10.8   734.7    0.00 
 247   14:50   0.12   53.3    81    7.3   142    11.9   734.7    0.01 
 247   15:00   0.10   52.8    83    7.2   146    10.2   734.6    0.00 
 247   15:10   0.11   52.6    85    6.0   149     9.6   734.6    0.00 
 247   15:20   0.11   52.8    85    5.1   151     9.0   734.7    0.00 
 247   15:30   0.13   53.0    85    4.9   154     8.4   734.6    0.00 
 247   15:40   0.09   52.7    85    6.4   149    11.3   734.6    0.00 
 247   15:50   0.11   52.3    87    6.1   148     9.6   734.6    0.00 
 247   16:00   0.10   52.3    88    4.5   147     7.8   734.6    0.00 
 247   16:10   0.09   52.2    88    4.1   154     7.8   734.6    0.01 
 247   16:20   0.11   52.3    89    4.0   149     6.6   734.5    0.00 
 247   16:30   0.11   52.7    88    3.1   151     5.4   734.5    0.00 
 247   16:40   0.07   52.5    87    3.3   143     6.0   734.5    0.00 
 247   16:50   0.06   52.4    86    2.3   128     6.6   734.5    0.00 
 247   17:00   0.04   52.3    86    1.7   141     3.6   734.4    0.00 
 247   17:10   0.04   52.3    86    0.8   145     3.0   734.4    0.00 
 247   17:20   0.04   52.4    86    1.0   140     3.6   734.3    0.00 
 247   17:30   0.05   52.4    85    2.9   140     6.6   734.3    0.00 
 247   17:40   0.04   52.3    84    3.7   150     7.2   734.4    0.00 
 247   17:50   0.04   52.2    83    5.2   151    11.3   734.4    0.00 
 247   18:00   0.03   52.0    82    5.3   154    12.5   734.4    0.00 
 247   18:10   0.02   51.8    83    3.3   155     6.0   734.4    0.00 
 247   18:20   0.01   51.7    83    4.7   153     9.0   734.4    0.00 
 247   18:30   0.00   51.5    82    5.6   155    10.8   734.4    0.00 
 247   18:40   0.00   51.2    83    6.8   149    14.9   734.3    0.00 
 247   18:50   0.00   51.0    84    6.6   146    10.2   734.4    0.00 
 247   19:00   0.00   50.9    84    7.1   141    13.7   734.4    0.00 
 247   19:10   0.00   51.0    83    6.4   146    11.9   734.6    0.00 
 247   19:20   0.00   50.8    84    5.2   140     9.6   734.7    0.00 
 247   19:30   0.00   50.6    85    4.4   133     9.6   734.7    0.00 
 247   19:40   0.00   50.2    87    3.1   117     4.8   734.7    0.00 
 247   19:50   0.00   49.9    88    4.1   129     7.8   734.8    0.00 
 247   20:00   0.00   49.8    88    3.8   118     6.0   734.9    0.00 
 247   20:10   0.00   49.7    89    4.2   123     6.6   735.0    0.00 
 247   20:20   0.00   50.0    88    5.8   142    11.9   735.1    0.00 
 247   20:30   0.00   50.0    88    5.1   136     9.6   735.1    0.00 
 247   20:40   0.00   49.9    89    5.2   136     8.4   735.1    0.01 
 247   20:50   0.00   49.9    90    5.8   141    11.9   735.2    0.00 
 247   21:00   0.00   49.9    90    6.2   141    10.8   735.2    0.00 
 247   21:10   0.00   49.7    90    4.9   142    10.8   735.2    0.00 
 247   21:20   0.00   49.5    91    3.7   137     9.0   735.2    0.00 
 247   21:30   100.00  99999.0   99999  99999.0   99999   99999.0   99999.0   99999.00 
 247   21:40   100.00  99999.0   99999  99999.0   99999   99999.0   99999.0   99999.00 
 247   21:50   100.00  99999.0   99999  99999.0   99999   99999.0   99999.0   99999.00 
 247   22:00   100.00  99999.0   99999  99999.0   99999   99999.0   99999.0   99999.00 
 247   22:10   100.00  99999.0   99999  99999.0   99999   99999.0   99999.0   99999.00 
 247   22:20   100.00  99999.0   99999  99999.0   99999   99999.0   99999.0   99999.00 
 247   22:30   0.00   50.3    88    2.7   126     7.2   735.0    0.00 
 247   22:40   0.00   50.2    88    0.8   101     3.6   735.0    0.00 
 247   22:50   0.00   50.2    89    0.5   134     3.0   735.0    0.00 
 247   23:00   0.00   50.3    89    0.2    68     2.4   734.9    0.00 
 247   23:10   0.00   50.4    89    0.1   353     2.4   735.0    0.00 
 247   23:20   0.00   50.4    89    0.6    46     4.2   734.9    0.00 
 247   23:30   0.00   50.5    89    0.3   356     3.0   734.8    0.00 
 247   23:40   0.00   50.5    89    0.7     0     3.6   734.9    0.00 
 247   23:50   0.00   50.7    89    0.0   105     1.2   734.8    0.00 
 248    0:00   0.00   50.9    89    0.0     0     0.0   734.9    0.00 
 248    0:10   0.00   50.8    88    3.4   122     7.2   734.9    0.00 
 248    0:20   0.00   50.7    89    1.5   119     4.8   734.9    0.00 
 248    0:30   0.00   50.7    90    0.5    38     2.4   734.7    0.00 
 248    0:40   0.00   50.7    90    1.5   244     3.6   734.7    0.00 
 248    0:50   0.00   50.7    90    0.8   140     3.0   734.8    0.00 
 248    1:00   0.00   50.7    90    0.0    82     1.2   734.9    0.00 
 248    1:10   0.00   50.7    90    1.1   324     4.8   734.7    0.00 
 248    1:20   0.00   50.8    90    0.3   150     2.4   734.7    0.00 
 248    1:30   0.00   50.8    90    0.6    95     3.0   734.8    0.00 
 248    1:40   0.00   50.8    90    0.7    98     3.6   734.7    0.00 
 248    1:50   0.00   50.9    89    1.5   144     6.0   734.6    0.00 
 248    2:00   0.00   51.1    88    1.4   129     4.8   734.5    0.00 
 248    2:10   0.00   51.1    88    0.7   216     3.0   734.6    0.00 
 248    2:20   0.00   51.0    89    1.3   236     3.0   734.5    0.00 
 248    2:30   0.00   50.8    89    0.7   294     3.0   734.4    0.00 
 248    2:40   0.00   50.7    90    0.8   264     5.4   734.6    0.00 
 248    2:50   0.00   50.5    90    2.4   304     4.8   734.6    0.00 
 248    3:00   0.00   50.5    91    0.9   314     3.6   734.6    0.00 
 248    3:10   0.00   50.5    91    0.0     0     0.0   734.6    0.00 
 248    3:20   0.00   50.6    91    0.0   358     1.2   734.6    0.00 
 248    3:30   0.00   50.6    91    0.2   353     1.8   734.8    0.00 
 248    3:40   0.00   50.6    91    0.1   336     1.2   734.8    0.00 
 248    3:50   0.00   50.6    91    0.1   336     1.8   734.9    0.00 
 248    4:00   0.00   50.7    91    0.0     0     0.0   735.0    0.00 
 248    4:10   0.00   50.7    91    0.3    21     3.0   734.9    0.00 
 248    4:20   0.00   50.8    91    1.3    11     3.0   735.0    0.00 
 248    4:30   0.00   50.9    91    0.2   342     1.8   735.0    0.00 
 248    4:40   0.00   51.0    90    0.2     0     1.8   735.0    0.00 
 248    4:50   0.00   51.0    90    0.6   342     3.0   735.0    0.00 
 248    5:00   0.00   51.0    90    0.0     0     0.0   735.0    0.00 
 248    5:10   0.00   51.0    90    0.2   349     3.6   735.0    0.00 
 248    5:20   0.00   51.0    90    0.9   343     3.6   735.0    0.00 

Return to Valle Toledo, Valles Caldera graphs page.


Western Regional Climate Center,wrcc@dri.edu